• Join FlightAware (Why Join?)
  • Login
  • US Flag 
01:48AM EDT


 

Airport Tracker/Info


-or-


 

Live Flight TrackerFlight Track Log ✈ DAL6385 ✈ 03-Feb-2014 ✈ KBUF - KDTW

Flight Track Log - Related Links

Times and Time Zones

All times are in EST time to prevent confusion due to time zone crossing. See the DAL6385 flight status page for this flight to view local times or setup timezone preferences in your user account.

Time Position Orientation Groundspeed Altitude Reporting Facility
EST Latitude Longitude Course Direction KTS MPH feet Rate Location/Type
01:30PM 42.9500 -78.7000 262° West 157 181 1,500  Level Buffalo TRACON
01:30PM 42.9667 -78.7000 360° North 165 190 2,100 2,280 Climbing Buffalo TRACON
01:32PM 42.9983 -78.7417 316° Northwest 186 214 6,400 2,160 Climbing Cleveland Center
01:33PM 42.8416 -79.1668 236° Southwest  Level FlightAware Approximate
01:33PM 42.9731 -78.8194 246° West 213 245 8,400  Level Cleveland Center
01:34PM 42.8239 -79.2783 246° West  Level FlightAware Approximate
01:34PM 42.9436 -78.9039 245° Southwest 247 284 9,700  Level Cleveland Center
01:35PM 42.8074 -79.3931 262° West  Level FlightAware Approximate
01:35PM 42.9092 -79.0003 244° Southwest 274 315 12,100  Level Cleveland Center
01:36PM 42.8778 -79.0919 245° Southwest 270 311 14,000 1,800 Climbing Cleveland Center
01:37PM 42.8483 -79.1889 248° West 277 319 15,800 1,620 Climbing Cleveland Center
01:38PM 42.8350 -79.2931 260° West 280 322 17,400 1,440 Climbing Cleveland Center
01:39PM 42.8175 -79.4069 258° West 292 336 18,800 1,560 Climbing Cleveland Center
01:40PM 42.7986 -79.5344 259° West 299 344 20,600 1,560 Climbing Cleveland Center
01:41PM 42.7808 -79.6511 258° West 307 353 22,100 1,320 Climbing Cleveland Center
01:42PM 42.7639 -79.7656 259° West 316 364 23,400 1,200 Climbing Cleveland Center
01:43PM 42.7494 -79.8850 261° West 323 372 24,600 1,260 Climbing Cleveland Center
01:44PM 42.7439 -80.0214 267° West 333 383 26,000 660 Climbing Cleveland Center
01:45PM 42.7231 -80.1442 257° West 335 386 26,000  Level Cleveland Center
01:46PM 42.6672 -80.2525 235° Southwest 348 400 26,000  Level Cleveland Center
01:47PM 42.6667 -80.3836 270° West 343 395 26,000  Level Cleveland Center
01:48PM 42.6781 -80.5153 277° West 346 398 26,000  Level Cleveland Center
01:49PM 42.6872 -80.6458 276° West 344 396 26,000 -360 Level Cleveland Center
01:50PM 42.6978 -80.7775 276° West 348 400 25,300 -840 Descending Cleveland Center
01:51PM 42.7044 -80.9028 274° West 337 388 24,400 -660 Descending Cleveland Center
01:52PM 42.6903 -81.0222 261° West 320 368 24,000 -300 Descending Cleveland Center
01:53PM 42.6772 -81.1364 261° West 308 354 23,800 -780 Descending Cleveland Center
01:54PM 42.6611 -81.2808 261° West 326 375 22,500 -1,260 Descending Cleveland Center
01:55PM 42.6461 -81.4083 261° West 337 388 21,300 -1,500 Descending Cleveland Center
01:56PM 42.6319 -81.5272 261° West 324 373 19,500 -1,800 Descending Cleveland Center
01:57PM 42.6194 -81.6364 261° West 299 344 17,700 -1,620 Descending Cleveland Center
01:59PM 42.6072 -81.7422 261° West 286 329 16,300 -840 Descending Cleveland Center
02:00PM 42.5931 -81.8547 260° West 282 325 16,000 -180 Descending Cleveland Center
02:01PM 42.5811 -81.9556 261° West 275 316 16,000 -240 Level Cleveland Center
02:02PM 42.5692 -82.0558 261° West 271 312 15,600 -780 Descending Cleveland Center
02:03PM 42.5558 -82.1633 260° West 283 326 14,500 -1,140 Descending Cleveland Center
02:03PM 42.5456 -82.2428 260° West 290 334 13,700 -1,200 Descending Cleveland Center
02:04PM 42.5425 -82.2686 261° West 286 329 13,300 -1,260 Descending Cleveland Center
02:04PM 42.5314 -82.3600 261° West 274 315 12,300 -1,080 Descending Cleveland Center
02:05PM 42.5292 -82.3714 255° West 281 323 12,200 -240 Descending Cleveland Center
02:05PM 42.5181 -82.4600 260° West 274 315 12,100 -120 Descending Cleveland Center
02:06PM 42.5150 -82.4922 263° West 274 315 12,100  Level Cleveland Center
02:06PM 42.5006 -82.5625 254° West 282 325 12,100 -240 Level Cleveland Center
02:07PM 42.4906 -82.5936 246° West 287 330 11,900 -1,200 Descending Cleveland Center
02:07PM 42.4714 -82.6492 245° Southwest 263 303 11,000 -1,620 Descending Cleveland Center
02:08PM 42.4600 -82.6808 244° Southwest 262 302 10,300 -1,680 Descending Cleveland Center
02:08PM 42.4422 -82.7331 245° Southwest 251 289 9,300 -1,200 Descending Cleveland Center
02:09PM 42.4292 -82.7647 241° Southwest 251 289 9,100 -300 Descending Cleveland Center
02:09PM 42.4106 -82.8222 246° West 243 280 9,000 -600 Descending Cleveland Center
02:10PM 42.4103 -82.8511 269° West 251 289 8,500 -1,380 Descending Cleveland Center
02:10PM 42.4061 -82.9119 265° West 242 278 7,600 -1,380 Descending Cleveland Center
02:11PM 42.4028 -82.9392 261° West 240 276 7,100 -1,440 Descending Cleveland Center
02:11PM 42.3917 -82.9919 254° West 238 274 6,300 -1,020 Descending Cleveland Center
02:12PM 42.3856 -83.0261 256° West 240 276 6,100 -300 Descending Cleveland Center
02:12PM 42.3747 -83.0803 255° West 242 278 6,000 -900 Descending Cleveland Center
02:13PM 42.3669 -83.1292 258° West 237 273 5,200 -1,500 Descending Cleveland Center
02:13PM 42.3578 -83.1653 251° West 224 258 4,500 -1,380 Descending Cleveland Center
02:14PM 42.3439 -83.2053 245° Southwest 230 265 3,800 -1,080 Descending Cleveland Center
02:14PM 42.3286 -83.2461 243° Southwest 207 238 3,300 -900 Descending Cleveland Center
02:15PM 42.3108 -83.2661 220° Southwest 220 253 2,900 -1,020 Descending Cleveland Center
02:15PM 42.2814 -83.2875 208° Southwest 180 207 2,300 -1,020 Descending Cleveland Center
02:16PM 42.2664 -83.3011 214° Southwest 198 228 1,900 -900 Descending Cleveland Center
02:16PM 42.2456 -83.3164 208° Southwest 143 165 1,400 -720 Descending Cleveland Center
02:17PM 42.2286 -83.3267 204° Southwest 167 192 1,200 -420 Descending Cleveland Center